sensor_id;sensor_type;location;lat;lon;timestamp;noise_LAeq;noise_LA_min;noise_LA_max;noise_LA01;noise_LA95
64077;Laerm;51039;49.696;10.808;2022-10-31T00:03:44;30.60;29.39;31.65;;
64077;Laerm;51039;49.696;10.808;2022-10-31T00:06:10;30.56;29.49;31.78;;
64077;Laerm;51039;49.696;10.808;2022-10-31T00:08:35;30.46;29.27;31.61;;
64077;Laerm;51039;49.696;10.808;2022-10-31T00:11:01;30.49;29.38;31.64;;
64077;Laerm;51039;49.696;10.808;2022-10-31T00:13:26;30.49;29.06;31.60;;
64077;Laerm;51039;49.696;10.808;2022-10-31T00:15:51;30.36;29.21;31.69;;
64077;Laerm;51039;49.696;10.808;2022-10-31T00:18:17;30.30;29.25;31.33;;
64077;Laerm;51039;49.696;10.808;2022-10-31T00:20:42;30.29;29.24;31.33;;
64077;Laerm;51039;49.696;10.808;2022-10-31T00:23:08;30.22;29.11;31.29;;
64077;Laerm;51039;49.696;10.808;2022-10-31T00:25:37;30.16;28.82;31.20;;
64077;Laerm;51039;49.696;10.808;2022-10-31T00:28:04;30.05;28.71;31.27;;
64077;Laerm;51039;49.696;10.808;2022-10-31T00:30:30;29.98;28.84;31.05;;
64077;Laerm;51039;49.696;10.808;2022-10-31T00:32:55;29.96;28.85;30.99;;
64077;Laerm;51039;49.696;10.808;2022-10-31T00:35:20;29.93;28.79;30.97;;
64077;Laerm;51039;49.696;10.808;2022-10-31T00:37:46;29.91;28.40;31.14;;
64077;Laerm;51039;49.696;10.808;2022-10-31T00:40:11;29.88;28.43;30.96;;
64077;Laerm;51039;49.696;10.808;2022-10-31T00:42:37;29.86;28.66;31.08;;
64077;Laerm;51039;49.696;10.808;2022-10-31T00:45:03;29.85;28.71;30.93;;
64077;Laerm;51039;49.696;10.808;2022-10-31T00:47:29;29.83;28.66;30.95;;
64077;Laerm;51039;49.696;10.808;2022-10-31T00:49:54;29.83;28.31;30.99;;
64077;Laerm;51039;49.696;10.808;2022-10-31T00:52:19;29.81;28.43;31.21;;
64077;Laerm;51039;49.696;10.808;2022-10-31T00:54:45;29.75;28.40;30.94;;
64077;Laerm;51039;49.696;10.808;2022-10-31T00:57:10;29.73;28.61;31.20;;
64077;Laerm;51039;49.696;10.808;2022-10-31T00:59:35;29.68;28.54;30.88;;
64077;Laerm;51039;49.696;10.808;2022-10-31T01:02:00;29.68;28.58;30.68;;
64077;Laerm;51039;49.696;10.808;2022-10-31T01:04:26;29.70;28.44;30.86;;
64077;Laerm;51039;49.696;10.808;2022-10-31T01:06:51;29.68;28.38;30.77;;
64077;Laerm;51039;49.696;10.808;2022-10-31T01:09:16;29.67;28.34;30.85;;
64077;Laerm;51039;49.696;10.808;2022-10-31T01:11:42;29.65;28.54;32.05;;
64077;Laerm;51039;49.696;10.808;2022-10-31T01:14:08;29.65;28.57;30.78;;
64077;Laerm;51039;49.696;10.808;2022-10-31T01:16:34;29.62;28.45;30.89;;
64077;Laerm;51039;49.696;10.808;2022-10-31T01:18:59;29.60;28.41;30.79;;
64077;Laerm;51039;49.696;10.808;2022-10-31T01:21:26;29.60;28.40;30.65;;
64077;Laerm;51039;49.696;10.808;2022-10-31T01:23:53;29.59;28.35;30.66;;
64077;Laerm;51039;49.696;10.808;2022-10-31T01:26:21;29.56;28.13;30.88;;
64077;Laerm;51039;49.696;10.808;2022-10-31T01:31:18;29.55;28.38;30.88;;
64077;Laerm;51039;49.696;10.808;2022-10-31T01:33:44;29.54;28.16;30.69;;
64077;Laerm;51039;49.696;10.808;2022-10-31T01:36:19;29.54;28.40;30.80;;
64077;Laerm;51039;49.696;10.808;2022-10-31T01:38:46;29.51;28.19;30.64;;
64077;Laerm;51039;49.696;10.808;2022-10-31T01:41:13;29.49;28.36;30.53;;
64077;Laerm;51039;49.696;10.808;2022-10-31T01:43:56;29.47;28.21;30.98;;
64077;Laerm;51039;49.696;10.808;2022-10-31T01:46:27;29.45;28.32;30.71;;
64077;Laerm;51039;49.696;10.808;2022-10-31T01:48:55;29.43;28.24;30.51;;
64077;Laerm;51039;49.696;10.808;2022-10-31T01:51:24;29.43;28.05;30.40;;
64077;Laerm;51039;49.696;10.808;2022-10-31T01:53:52;29.40;28.09;30.54;;
64077;Laerm;51039;49.696;10.808;2022-10-31T01:56:19;29.38;28.13;30.45;;
64077;Laerm;51039;49.696;10.808;2022-10-31T01:58:45;29.37;28.34;30.45;;
64077;Laerm;51039;49.696;10.808;2022-10-31T02:01:13;29.35;28.23;30.37;;
64077;Laerm;51039;49.696;10.808;2022-10-31T02:03:39;29.29;28.04;30.36;;
64077;Laerm;51039;49.696;10.808;2022-10-31T02:06:08;29.27;28.12;30.33;;
64077;Laerm;51039;49.696;10.808;2022-10-31T02:08:37;29.28;28.15;30.85;;
64077;Laerm;51039;49.696;10.808;2022-10-31T02:11:04;29.26;28.14;30.34;;
64077;Laerm;51039;49.696;10.808;2022-10-31T02:13:30;29.24;28.13;30.37;;
64077;Laerm;51039;49.696;10.808;2022-10-31T02:15:58;29.21;27.94;30.36;;
64077;Laerm;51039;49.696;10.808;2022-10-31T02:18:25;29.19;28.01;30.27;;
64077;Laerm;51039;49.696;10.808;2022-10-31T02:21:07;29.17;27.90;30.27;;
64077;Laerm;51039;49.696;10.808;2022-10-31T02:31:42;29.07;27.79;30.06;;
64077;Laerm;51039;49.696;10.808;2022-10-31T02:39:23;29.05;27.88;30.20;;
64077;Laerm;51039;49.696;10.808;2022-10-31T02:42:07;29.02;27.70;30.23;;
64077;Laerm;51039;49.696;10.808;2022-10-31T02:47:12;28.99;27.71;30.22;;
64077;Laerm;51039;49.696;10.808;2022-10-31T02:52:27;28.98;27.74;30.26;;
64077;Laerm;51039;49.696;10.808;2022-10-31T02:54:53;28.97;27.70;30.15;;
64077;Laerm;51039;49.696;10.808;2022-10-31T02:57:31;28.95;27.66;30.10;;
64077;Laerm;51039;49.696;10.808;2022-10-31T03:00:03;28.92;27.82;30.03;;
64077;Laerm;51039;49.696;10.808;2022-10-31T03:08:29;28.86;27.64;30.15;;
64077;Laerm;51039;49.696;10.808;2022-10-31T03:10:59;28.83;27.54;29.90;;
64077;Laerm;51039;49.696;10.808;2022-10-31T03:13:49;28.80;27.51;29.89;;
64077;Laerm;51039;49.696;10.808;2022-10-31T03:19:11;28.77;27.53;29.90;;
64077;Laerm;51039;49.696;10.808;2022-10-31T03:21:45;28.76;27.54;29.90;;
64077;Laerm;51039;49.696;10.808;2022-10-31T03:24:13;28.75;27.48;29.88;;
64077;Laerm;51039;49.696;10.808;2022-10-31T03:26:47;28.72;27.44;29.83;;
64077;Laerm;51039;49.696;10.808;2022-10-31T03:29:16;28.72;27.59;29.93;;
64077;Laerm;51039;49.696;10.808;2022-10-31T03:31:55;28.71;27.54;29.90;;
64077;Laerm;51039;49.696;10.808;2022-10-31T03:34:22;28.68;27.23;29.75;;
64077;Laerm;51039;49.696;10.808;2022-10-31T03:36:50;28.66;27.49;29.82;;
64077;Laerm;51039;49.696;10.808;2022-10-31T03:39:19;28.62;27.38;29.93;;
64077;Laerm;51039;49.696;10.808;2022-10-31T03:41:52;28.61;27.44;29.95;;
64077;Laerm;51039;49.696;10.808;2022-10-31T03:44:21;28.59;27.44;29.88;;
64077;Laerm;51039;49.696;10.808;2022-10-31T03:46:47;28.58;27.31;29.71;;
64077;Laerm;51039;49.696;10.808;2022-10-31T03:49:13;28.55;27.32;29.81;;
64077;Laerm;51039;49.696;10.808;2022-10-31T03:59:43;28.51;27.27;29.70;;
64077;Laerm;51039;49.696;10.808;2022-10-31T04:02:14;28.48;27.36;29.60;;
64077;Laerm;51039;49.696;10.808;2022-10-31T04:04:42;28.48;26.75;29.61;;
64077;Laerm;51039;49.696;10.808;2022-10-31T04:07:10;28.47;27.28;29.53;;
64077;Laerm;51039;49.696;10.808;2022-10-31T04:09:38;28.46;27.25;29.78;;
64077;Laerm;51039;49.696;10.808;2022-10-31T04:12:08;28.45;27.23;29.61;;
64077;Laerm;51039;49.696;10.808;2022-10-31T04:14:38;28.44;27.25;29.54;;
64077;Laerm;51039;49.696;10.808;2022-10-31T04:17:07;28.43;27.11;29.90;;
64077;Laerm;51039;49.696;10.808;2022-10-31T04:19:34;28.45;27.10;29.56;;
64077;Laerm;51039;49.696;10.808;2022-10-31T04:22:00;28.42;27.20;29.45;;
64077;Laerm;51039;49.696;10.808;2022-10-31T04:24:25;28.40;27.26;29.53;;
64077;Laerm;51039;49.696;10.808;2022-10-31T04:26:50;28.41;27.16;29.52;;
64077;Laerm;51039;49.696;10.808;2022-10-31T04:29:15;28.40;27.14;29.48;;
64077;Laerm;51039;49.696;10.808;2022-10-31T04:31:41;28.39;27.07;29.57;;
64077;Laerm;51039;49.696;10.808;2022-10-31T04:34:06;28.38;27.19;29.60;;
64077;Laerm;51039;49.696;10.808;2022-10-31T04:36:32;28.38;27.26;29.42;;
64077;Laerm;51039;49.696;10.808;2022-10-31T04:38:58;28.35;27.11;29.54;;
64077;Laerm;51039;49.696;10.808;2022-10-31T04:41:23;28.34;27.13;29.38;;
64077;Laerm;51039;49.696;10.808;2022-10-31T04:43:48;28.33;27.04;29.42;;
64077;Laerm;51039;49.696;10.808;2022-10-31T04:46:13;28.30;27.07;29.65;;
64077;Laerm;51039;49.696;10.808;2022-10-31T04:48:39;28.29;26.96;29.50;;
64077;Laerm;51039;49.696;10.808;2022-10-31T04:51:04;28.29;27.21;29.36;;
64077;Laerm;51039;49.696;10.808;2022-10-31T04:53:29;28.28;26.94;29.39;;
64077;Laerm;51039;49.696;10.808;2022-10-31T04:55:57;28.27;26.92;29.56;;
64077;Laerm;51039;49.696;10.808;2022-10-31T04:58:23;28.25;27.05;29.43;;
64077;Laerm;51039;49.696;10.808;2022-10-31T05:00:52;28.25;27.06;29.42;;
64077;Laerm;51039;49.696;10.808;2022-10-31T05:03:18;28.23;26.99;29.43;;
64077;Laerm;51039;49.696;10.808;2022-10-31T05:05:43;28.22;26.71;29.42;;
64077;Laerm;51039;49.696;10.808;2022-10-31T05:08:08;28.21;26.76;29.34;;
64077;Laerm;51039;49.696;10.808;2022-10-31T05:10:33;28.20;27.15;29.35;;
64077;Laerm;51039;49.696;10.808;2022-10-31T05:13:00;28.19;26.98;29.22;;
64077;Laerm;51039;49.696;10.808;2022-10-31T05:15:27;28.18;26.60;29.29;;
64077;Laerm;51039;49.696;10.808;2022-10-31T05:17:53;28.16;27.06;29.37;;
64077;Laerm;51039;49.696;10.808;2022-10-31T05:20:23;28.16;26.94;29.42;;
64077;Laerm;51039;49.696;10.808;2022-10-31T05:22:50;28.14;26.92;29.31;;
64077;Laerm;51039;49.696;10.808;2022-10-31T05:25:17;28.13;26.84;29.25;;
64077;Laerm;51039;49.696;10.808;2022-10-31T05:27:47;28.14;26.91;29.27;;
64077;Laerm;51039;49.696;10.808;2022-10-31T05:30:16;28.14;26.99;29.43;;
64077;Laerm;51039;49.696;10.808;2022-10-31T05:32:46;28.11;26.76;29.23;;
64077;Laerm;51039;49.696;10.808;2022-10-31T05:35:15;28.06;26.87;29.20;;
64077;Laerm;51039;49.696;10.808;2022-10-31T05:37:41;28.04;26.85;29.08;;
64077;Laerm;51039;49.696;10.808;2022-10-31T05:40:08;28.03;26.86;29.36;;
64077;Laerm;51039;49.696;10.808;2022-10-31T05:42:34;28.02;26.74;29.22;;
64077;Laerm;51039;49.696;10.808;2022-10-31T05:45:00;28.00;26.61;29.17;;
64077;Laerm;51039;49.696;10.808;2022-10-31T05:47:25;27.98;26.90;29.10;;
64077;Laerm;51039;49.696;10.808;2022-10-31T05:49:51;27.97;26.90;29.09;;
64077;Laerm;51039;49.696;10.808;2022-10-31T05:52:16;27.96;26.60;29.32;;
64077;Laerm;51039;49.696;10.808;2022-10-31T05:54:42;27.96;26.61;29.07;;
64077;Laerm;51039;49.696;10.808;2022-10-31T05:57:07;27.95;26.73;28.98;;
64077;Laerm;51039;49.696;10.808;2022-10-31T05:59:33;27.92;26.50;29.00;;
64077;Laerm;51039;49.696;10.808;2022-10-31T06:01:58;27.90;26.66;29.06;;
64077;Laerm;51039;49.696;10.808;2022-10-31T06:04:23;27.91;26.73;29.20;;
64077;Laerm;51039;49.696;10.808;2022-10-31T06:06:48;27.89;26.72;28.97;;
64077;Laerm;51039;49.696;10.808;2022-10-31T06:09:14;27.87;26.76;28.96;;
64077;Laerm;51039;49.696;10.808;2022-10-31T06:11:39;27.88;26.63;29.04;;
64077;Laerm;51039;49.696;10.808;2022-10-31T06:14:05;27.83;26.67;28.92;;
64077;Laerm;51039;49.696;10.808;2022-10-31T06:16:30;27.82;26.60;28.99;;
64077;Laerm;51039;49.696;10.808;2022-10-31T06:18:56;27.81;26.49;29.02;;
64077;Laerm;51039;49.696;10.808;2022-10-31T06:21:21;27.80;26.58;29.01;;
64077;Laerm;51039;49.696;10.808;2022-10-31T06:23:47;27.78;26.56;28.79;;
64077;Laerm;51039;49.696;10.808;2022-10-31T06:26:12;27.73;26.65;28.79;;
64077;Laerm;51039;49.696;10.808;2022-10-31T06:28:37;27.73;26.33;28.88;;
64077;Laerm;51039;49.696;10.808;2022-10-31T06:31:03;27.71;26.57;28.83;;
64077;Laerm;51039;49.696;10.808;2022-10-31T06:33:28;27.70;26.44;28.89;;
64077;Laerm;51039;49.696;10.808;2022-10-31T06:35:53;27.69;26.46;28.79;;
64077;Laerm;51039;49.696;10.808;2022-10-31T06:38:18;27.67;26.44;28.86;;
64077;Laerm;51039;49.696;10.808;2022-10-31T06:40:44;27.67;26.52;28.67;;
64077;Laerm;51039;49.696;10.808;2022-10-31T06:43:09;27.66;26.16;28.79;;
64077;Laerm;51039;49.696;10.808;2022-10-31T06:45:36;27.63;26.29;28.78;;
64077;Laerm;51039;49.696;10.808;2022-10-31T06:48:01;27.62;26.30;28.92;;
64077;Laerm;51039;49.696;10.808;2022-10-31T06:50:27;27.61;26.49;28.80;;
64077;Laerm;51039;49.696;10.808;2022-10-31T06:52:54;27.60;26.45;28.77;;
64077;Laerm;51039;49.696;10.808;2022-10-31T06:55:21;27.57;26.43;28.84;;
64077;Laerm;51039;49.696;10.808;2022-10-31T06:57:58;27.55;26.37;28.72;;
64077;Laerm;51039;49.696;10.808;2022-10-31T07:00:25;27.54;25.96;28.63;;
64077;Laerm;51039;49.696;10.808;2022-10-31T07:03:02;27.53;26.28;28.78;;
64077;Laerm;51039;49.696;10.808;2022-10-31T07:05:29;27.51;26.23;28.75;;
64077;Laerm;51039;49.696;10.808;2022-10-31T07:07:56;27.50;26.09;29.24;;
64077;Laerm;51039;49.696;10.808;2022-10-31T07:10:22;27.50;26.33;28.68;;
64077;Laerm;51039;49.696;10.808;2022-10-31T07:12:48;27.46;26.10;28.80;;
64077;Laerm;51039;49.696;10.808;2022-10-31T07:15:13;27.47;26.25;28.67;;
64077;Laerm;51039;49.696;10.808;2022-10-31T07:17:39;27.44;26.22;28.54;;
64077;Laerm;51039;49.696;10.808;2022-10-31T07:20:04;27.39;26.09;28.66;;
64077;Laerm;51039;49.696;10.808;2022-10-31T07:22:37;27.37;26.09;28.55;;
64077;Laerm;51039;49.696;10.808;2022-10-31T07:25:03;27.37;26.04;28.60;;
64077;Laerm;51039;49.696;10.808;2022-10-31T07:27:35;27.37;26.24;28.50;;
64077;Laerm;51039;49.696;10.808;2022-10-31T07:30:00;27.34;25.93;28.52;;
64077;Laerm;51039;49.696;10.808;2022-10-31T07:32:25;27.33;25.99;28.54;;
64077;Laerm;51039;49.696;10.808;2022-10-31T07:34:52;27.33;26.10;28.29;;
64077;Laerm;51039;49.696;10.808;2022-10-31T07:37:17;27.31;26.06;28.53;;
64077;Laerm;51039;49.696;10.808;2022-10-31T07:39:42;27.30;26.19;30.11;;
64077;Laerm;51039;49.696;10.808;2022-10-31T07:42:07;27.30;26.12;28.51;;
64077;Laerm;51039;49.696;10.808;2022-10-31T07:44:33;27.30;25.94;28.57;;
64077;Laerm;51039;49.696;10.808;2022-10-31T07:46:58;27.29;25.84;28.47;;
64077;Laerm;51039;49.696;10.808;2022-10-31T07:49:23;27.27;25.94;28.34;;
64077;Laerm;51039;49.696;10.808;2022-10-31T07:51:50;27.26;25.96;28.40;;
64077;Laerm;51039;49.696;10.808;2022-10-31T07:54:16;27.26;25.66;28.50;;
64077;Laerm;51039;49.696;10.808;2022-10-31T07:56:41;27.26;26.13;28.59;;
64077;Laerm;51039;49.696;10.808;2022-10-31T07:59:06;27.24;26.09;28.41;;
64077;Laerm;51039;49.696;10.808;2022-10-31T08:01:32;27.23;25.85;28.52;;
64077;Laerm;51039;49.696;10.808;2022-10-31T08:03:57;27.23;25.88;28.43;;
64077;Laerm;51039;49.696;10.808;2022-10-31T08:06:22;27.19;25.98;28.45;;
64077;Laerm;51039;49.696;10.808;2022-10-31T08:08:47;27.20;25.92;28.38;;
64077;Laerm;51039;49.696;10.808;2022-10-31T08:11:13;27.20;26.01;28.48;;
64077;Laerm;51039;49.696;10.808;2022-10-31T08:13:38;27.18;25.94;28.29;;
64077;Laerm;51039;49.696;10.808;2022-10-31T08:16:04;27.19;26.01;28.31;;
64077;Laerm;51039;49.696;10.808;2022-10-31T08:18:30;27.16;25.76;28.29;;
64077;Laerm;51039;49.696;10.808;2022-10-31T08:20:55;27.15;25.83;28.28;;
64077;Laerm;51039;49.696;10.808;2022-10-31T08:23:21;27.14;25.96;28.38;;
64077;Laerm;51039;49.696;10.808;2022-10-31T08:25:46;27.13;25.83;28.24;;
64077;Laerm;51039;49.696;10.808;2022-10-31T08:28:13;27.12;25.85;28.20;;
64077;Laerm;51039;49.696;10.808;2022-10-31T08:30:40;27.11;25.88;28.33;;
64077;Laerm;51039;49.696;10.808;2022-10-31T08:35:36;27.08;25.67;28.29;;
64077;Laerm;51039;49.696;10.808;2022-10-31T08:38:02;27.07;25.83;28.82;;
64077;Laerm;51039;49.696;10.808;2022-10-31T08:40:29;27.06;25.84;28.39;;
64077;Laerm;51039;49.696;10.808;2022-10-31T08:43:16;27.04;25.78;28.33;;
64077;Laerm;51039;49.696;10.808;2022-10-31T08:45:42;27.04;25.80;28.21;;
64077;Laerm;51039;49.696;10.808;2022-10-31T08:48:12;27.02;25.45;28.15;;
64077;Laerm;51039;49.696;10.808;2022-10-31T08:50:38;27.02;25.81;28.38;;
64077;Laerm;51039;49.696;10.808;2022-10-31T08:53:06;27.03;25.69;28.25;;
64077;Laerm;51039;49.696;10.808;2022-10-31T08:55:35;27.01;25.83;28.22;;
64077;Laerm;51039;49.696;10.808;2022-10-31T08:58:02;26.99;25.86;28.26;;
64077;Laerm;51039;49.696;10.808;2022-10-31T09:00:27;26.99;25.73;28.15;;
64077;Laerm;51039;49.696;10.808;2022-10-31T09:02:57;26.99;25.51;28.11;;
64077;Laerm;51039;49.696;10.808;2022-10-31T09:05:24;26.99;25.71;28.32;;
64077;Laerm;51039;49.696;10.808;2022-10-31T09:07:49;26.98;25.85;28.41;;
64077;Laerm;51039;49.696;10.808;2022-10-31T09:10:15;26.99;25.87;28.13;;
64077;Laerm;51039;49.696;10.808;2022-10-31T09:12:40;26.99;25.74;28.10;;
64077;Laerm;51039;49.696;10.808;2022-10-31T09:15:07;26.97;25.74;28.06;;
64077;Laerm;51039;49.696;10.808;2022-10-31T09:17:32;26.96;25.75;28.24;;
64077;Laerm;51039;49.696;10.808;2022-10-31T09:19:57;26.97;25.60;28.16;;
64077;Laerm;51039;49.696;10.808;2022-10-31T09:22:23;26.95;25.62;28.35;;
64077;Laerm;51039;49.696;10.808;2022-10-31T09:24:48;26.94;25.46;28.04;;
64077;Laerm;51039;49.696;10.808;2022-10-31T09:27:13;26.94;25.70;28.21;;
64077;Laerm;51039;49.696;10.808;2022-10-31T09:29:39;26.90;25.52;28.15;;
64077;Laerm;51039;49.696;10.808;2022-10-31T09:32:04;26.90;25.81;28.14;;
64077;Laerm;51039;49.696;10.808;2022-10-31T09:34:29;26.90;25.65;28.12;;
64077;Laerm;51039;49.696;10.808;2022-10-31T09:36:54;26.89;25.75;28.02;;
64077;Laerm;51039;49.696;10.808;2022-10-31T09:39:20;26.89;25.59;28.17;;
64077;Laerm;51039;49.696;10.808;2022-10-31T09:41:56;26.88;25.66;28.01;;
64077;Laerm;51039;49.696;10.808;2022-10-31T09:44:33;26.89;25.59;28.05;;
64077;Laerm;51039;49.696;10.808;2022-10-31T09:47:50;26.89;25.60;28.21;;
64077;Laerm;51039;49.696;10.808;2022-10-31T09:50:20;26.90;25.69;28.27;;
64077;Laerm;51039;49.696;10.808;2022-10-31T09:53:11;26.90;25.67;27.99;;
64077;Laerm;51039;49.696;10.808;2022-10-31T09:55:44;26.91;25.50;28.10;;
64077;Laerm;51039;49.696;10.808;2022-10-31T09:58:18;26.92;25.65;28.10;;
64077;Laerm;51039;49.696;10.808;2022-10-31T10:00:46;26.92;25.79;28.04;;
64077;Laerm;51039;49.696;10.808;2022-10-31T10:03:33;26.96;25.84;28.26;;
64077;Laerm;51039;49.696;10.808;2022-10-31T10:06:13;27.01;25.84;28.06;;
64077;Laerm;51039;49.696;10.808;2022-10-31T10:08:39;27.05;25.74;28.47;;
64077;Laerm;51039;49.696;10.808;2022-10-31T10:11:32;27.16;25.95;28.53;;
64077;Laerm;51039;49.696;10.808;2022-10-31T10:14:27;27.32;25.89;28.59;;
64077;Laerm;51039;49.696;10.808;2022-10-31T10:22:12;28.13;26.91;29.49;;
64077;Laerm;51039;49.696;10.808;2022-10-31T10:30:30;29.56;28.23;30.69;;
64077;Laerm;51039;49.696;10.808;2022-10-31T10:33:19;30.26;28.76;31.63;;
64077;Laerm;51039;49.696;10.808;2022-10-31T10:36:08;31.38;29.94;32.86;;
64077;Laerm;51039;49.696;10.808;2022-10-31T10:38:39;32.60;31.25;33.89;;
64077;Laerm;51039;49.696;10.808;2022-10-31T10:41:16;33.60;31.99;35.25;;
64077;Laerm;51039;49.696;10.808;2022-10-31T10:43:42;34.27;33.07;35.44;;
64077;Laerm;51039;49.696;10.808;2022-10-31T10:51:44;35.33;33.93;36.78;;
64077;Laerm;51039;49.696;10.808;2022-10-31T10:54:18;35.83;34.42;38.13;;
64077;Laerm;51039;49.696;10.808;2022-10-31T10:56:56;36.06;34.42;37.34;;
64077;Laerm;51039;49.696;10.808;2022-10-31T10:59:25;35.97;34.53;37.24;;
64077;Laerm;51039;49.696;10.808;2022-10-31T11:01:51;35.92;34.48;37.27;;
64077;Laerm;51039;49.696;10.808;2022-10-31T11:04:30;35.86;34.29;37.35;;
64077;Laerm;51039;49.696;10.808;2022-10-31T11:07:04;36.24;34.85;37.63;;
64077;Laerm;51039;49.696;10.808;2022-10-31T11:09:31;35.83;34.59;37.03;;
64077;Laerm;51039;49.696;10.808;2022-10-31T11:11:57;36.35;34.61;38.03;;
64077;Laerm;51039;49.696;10.808;2022-10-31T11:14:23;36.69;35.42;38.06;;
64077;Laerm;51039;49.696;10.808;2022-10-31T11:16:53;36.29;35.16;37.73;;
64077;Laerm;51039;49.696;10.808;2022-10-31T11:19:25;36.37;34.78;37.61;;
64077;Laerm;51039;49.696;10.808;2022-10-31T11:22:06;36.79;35.31;38.17;;
64077;Laerm;51039;49.696;10.808;2022-10-31T11:24:37;37.05;35.50;38.32;;
64077;Laerm;51039;49.696;10.808;2022-10-31T11:27:29;36.28;34.90;37.47;;
64077;Laerm;51039;49.696;10.808;2022-10-31T11:30:04;36.26;34.85;37.42;;
64077;Laerm;51039;49.696;10.808;2022-10-31T11:32:30;36.66;35.31;38.03;;
64077;Laerm;51039;49.696;10.808;2022-10-31T11:34:59;36.90;35.68;38.02;;
64077;Laerm;51039;49.696;10.808;2022-10-31T11:37:28;37.05;35.43;38.26;;
64077;Laerm;51039;49.696;10.808;2022-10-31T11:39:56;37.11;35.87;38.20;;
64077;Laerm;51039;49.696;10.808;2022-10-31T11:42:25;37.26;36.10;38.42;;
64077;Laerm;51039;49.696;10.808;2022-10-31T11:44:52;37.62;36.26;38.96;;
64077;Laerm;51039;49.696;10.808;2022-10-31T11:47:25;37.79;36.57;38.96;;
64077;Laerm;51039;49.696;10.808;2022-10-31T11:49:51;37.75;36.37;39.01;;
64077;Laerm;51039;49.696;10.808;2022-10-31T11:52:22;37.86;36.62;39.13;;
64077;Laerm;51039;49.696;10.808;2022-10-31T11:54:49;37.95;36.86;39.08;;
64077;Laerm;51039;49.696;10.808;2022-10-31T11:59:55;37.91;36.60;39.09;;
64077;Laerm;51039;49.696;10.808;2022-10-31T12:02:21;38.07;36.91;39.28;;
64077;Laerm;51039;49.696;10.808;2022-10-31T12:04:53;38.24;37.05;39.40;;
64077;Laerm;51039;49.696;10.808;2022-10-31T12:07:22;38.46;36.88;39.72;;
64077;Laerm;51039;49.696;10.808;2022-10-31T12:09:48;38.66;37.38;39.84;;
64077;Laerm;51039;49.696;10.808;2022-10-31T12:15:44;38.90;37.60;40.19;;
64077;Laerm;51039;49.696;10.808;2022-10-31T12:17:57;38.94;37.62;40.04;;
64077;Laerm;51039;49.696;10.808;2022-10-31T12:20:38;38.93;37.55;40.22;;
64077;Laerm;51039;49.696;10.808;2022-10-31T12:23:21;38.98;37.51;40.13;;
64077;Laerm;51039;49.696;10.808;2022-10-31T12:28:57;39.01;37.42;40.22;;
64077;Laerm;51039;49.696;10.808;2022-10-31T12:31:49;39.00;37.76;40.20;;
64077;Laerm;51039;49.696;10.808;2022-10-31T12:43:20;39.07;37.70;40.29;;
64077;Laerm;51039;49.696;10.808;2022-10-31T12:45:56;39.08;37.59;40.26;;
64077;Laerm;51039;49.696;10.808;2022-10-31T12:59:30;39.16;37.44;40.50;;
64077;Laerm;51039;49.696;10.808;2022-10-31T13:02:25;39.14;37.80;40.47;;
64077;Laerm;51039;49.696;10.808;2022-10-31T13:10:23;39.12;37.93;40.50;;
64077;Laerm;51039;49.696;10.808;2022-10-31T13:12:53;39.09;37.77;40.36;;
64077;Laerm;51039;49.696;10.808;2022-10-31T13:15:26;39.06;37.75;40.31;;
64077;Laerm;51039;49.696;10.808;2022-10-31T13:17:56;39.03;37.58;40.23;;
64077;Laerm;51039;49.696;10.808;2022-10-31T13:20:29;39.02;37.77;40.13;;
64077;Laerm;51039;49.696;10.808;2022-10-31T13:23:11;38.99;37.85;40.16;;
64077;Laerm;51039;49.696;10.808;2022-10-31T13:25:45;39.00;37.57;40.26;;
64077;Laerm;51039;49.696;10.808;2022-10-31T13:30:47;39.02;37.50;40.16;;
64077;Laerm;51039;49.696;10.808;2022-10-31T13:33:17;39.01;37.78;40.20;;
64077;Laerm;51039;49.696;10.808;2022-10-31T13:35:56;39.00;37.65;40.10;;
64077;Laerm;51039;49.696;10.808;2022-10-31T13:48:56;38.91;37.68;40.13;;
64077;Laerm;51039;49.696;10.808;2022-10-31T13:51:30;38.89;37.51;40.15;;
64077;Laerm;51039;49.696;10.808;2022-10-31T13:54:00;38.87;37.50;40.02;;
64077;Laerm;51039;49.696;10.808;2022-10-31T13:56:29;38.83;37.51;40.08;;
64077;Laerm;51039;49.696;10.808;2022-10-31T14:01:35;38.79;37.51;40.12;;
64077;Laerm;51039;49.696;10.808;2022-10-31T14:04:05;38.77;37.39;39.91;;
64077;Laerm;51039;49.696;10.808;2022-10-31T14:06:41;38.78;37.52;39.87;;
64077;Laerm;51039;49.696;10.808;2022-10-31T14:09:38;38.74;37.47;39.91;;
64077;Laerm;51039;49.696;10.808;2022-10-31T14:12:22;38.72;37.44;39.70;;
64077;Laerm;51039;49.696;10.808;2022-10-31T14:14:52;38.74;37.50;39.94;;
64077;Laerm;51039;49.696;10.808;2022-10-31T14:17:21;38.73;37.53;39.93;;
64077;Laerm;51039;49.696;10.808;2022-10-31T14:22:54;38.66;37.43;39.92;;
64077;Laerm;51039;49.696;10.808;2022-10-31T14:25:34;38.63;37.42;39.90;;
64077;Laerm;51039;49.696;10.808;2022-10-31T14:28:02;38.55;37.26;39.89;;
64077;Laerm;51039;49.696;10.808;2022-10-31T14:30:29;38.53;37.45;39.70;;
64077;Laerm;51039;49.696;10.808;2022-10-31T14:32:58;38.53;37.27;39.71;;
64077;Laerm;51039;49.696;10.808;2022-10-31T14:35:34;38.47;37.21;39.86;;
64077;Laerm;51039;49.696;10.808;2022-10-31T14:38:11;38.43;37.06;39.65;;
64077;Laerm;51039;49.696;10.808;2022-10-31T14:43:38;38.35;37.03;39.51;;
64077;Laerm;51039;49.696;10.808;2022-10-31T14:51:52;38.12;36.91;39.34;;
64077;Laerm;51039;49.696;10.808;2022-10-31T14:54:43;38.05;36.79;39.20;;
64077;Laerm;51039;49.696;10.808;2022-10-31T14:57:19;37.95;36.67;39.34;;
64077;Laerm;51039;49.696;10.808;2022-10-31T14:59:49;37.87;36.32;39.08;;
64077;Laerm;51039;49.696;10.808;2022-10-31T15:02:23;37.79;36.44;38.98;;
64077;Laerm;51039;49.696;10.808;2022-10-31T15:04:51;37.68;36.32;38.84;;
64077;Laerm;51039;49.696;10.808;2022-10-31T15:07:24;37.56;36.28;38.90;;
64077;Laerm;51039;49.696;10.808;2022-10-31T15:10:00;37.41;35.96;38.60;;
64077;Laerm;51039;49.696;10.808;2022-10-31T15:12:29;37.32;36.06;38.44;;
64077;Laerm;51039;49.696;10.808;2022-10-31T15:14:55;37.28;36.12;38.48;;
64077;Laerm;51039;49.696;10.808;2022-10-31T15:17:22;37.20;35.73;38.58;;
64077;Laerm;51039;49.696;10.808;2022-10-31T15:19:48;37.07;35.83;40.10;;
64077;Laerm;51039;49.696;10.808;2022-10-31T15:22:16;37.01;35.77;38.02;;
64077;Laerm;51039;49.696;10.808;2022-10-31T15:24:43;36.95;35.73;38.10;;
64077;Laerm;51039;49.696;10.808;2022-10-31T15:27:14;36.89;35.69;37.98;;
64077;Laerm;51039;49.696;10.808;2022-10-31T15:29:51;36.81;35.55;38.92;;
64077;Laerm;51039;49.696;10.808;2022-10-31T15:32:26;36.71;35.34;37.89;;
64077;Laerm;51039;49.696;10.808;2022-10-31T15:34:53;36.61;35.29;37.78;;
64077;Laerm;51039;49.696;10.808;2022-10-31T15:37:21;36.57;35.43;37.80;;
64077;Laerm;51039;49.696;10.808;2022-10-31T15:39:48;36.49;35.34;38.12;;
64077;Laerm;51039;49.696;10.808;2022-10-31T15:42:32;37.09;35.04;48.82;;
64077;Laerm;51039;49.696;10.808;2022-10-31T15:45:02;36.10;34.78;37.35;;